Paddock Lake, Wisconsin
Current Conditions -  °F | °C
As of 3:53 PM on Sunday 25 Jan 2015 (Local Time) from KENW Reporting Station
Broken Clouds Broken Clouds  
Wind Chill: 12°   Ceiling: 5500
Heat Index: 25°   Visibility: 10mi
Dew Point: 15°   Wind: 17mph
Humidity: 66%   Direction: 40°NE
Pressure: 29.93"   Gusts: NA
Location:  42.5866°N, 88.1341°W
Report Text: KENW 252153Z 04015KT 10SM FEW025 BKN055 M04/M09 A2993 RMK AO2 SLP146 T10391094
Loading
Personal Weather Stations






























Interactive Weather Map New forecast layout! Learn more

10-Day Weather Forecast

Advertisements
Track Severe Weather on mobile